sensor_id;sensor_type;location;lat;lon;timestamp;pressure;altitude;pressure_sealevel;temperature;humidity
35916;BME280;22010;47.558;10.218;2023-06-14T05:54:39;92840.47;;;27.99;29.83
35916;BME280;22010;47.558;10.218;2023-06-14T05:57:44;92839.19;;;28.21;28.94
35916;BME280;22010;47.558;10.218;2023-06-14T06:00:50;92833.25;;;28.34;28.81
35916;BME280;22010;47.558;10.218;2023-06-14T06:03:55;92838.41;;;28.44;28.46
35916;BME280;22010;47.558;10.218;2023-06-14T06:07:00;92838.84;;;28.51;28.47
35916;BME280;22010;47.558;10.218;2023-06-14T06:10:09;92840.03;;;28.59;28.27
35916;BME280;22010;47.558;10.218;2023-06-14T06:13:14;92838.72;;;28.61;28.18
35916;BME280;22010;47.558;10.218;2023-06-14T06:16:19;92836.78;;;28.67;27.71
35916;BME280;22010;47.558;10.218;2023-06-14T06:19:24;92837.50;;;28.73;27.77
35916;BME280;22010;47.558;10.218;2023-06-14T06:22:30;92839.06;;;28.74;28.01
35916;BME280;22010;47.558;10.218;2023-06-14T06:25:37;92849.00;;;28.82;27.98
35916;BME280;22010;47.558;10.218;2023-06-14T06:28:43;92838.91;;;28.84;28.02
35916;BME280;22010;47.558;10.218;2023-06-14T06:31:48;92841.50;;;28.89;28.25
35916;BME280;22010;47.558;10.218;2023-06-14T06:34:53;92844.59;;;28.96;28.25
35916;BME280;22010;47.558;10.218;2023-06-14T06:37:59;92846.09;;;29.02;28.28
35916;BME280;22010;47.558;10.218;2023-06-14T06:41:07;92851.81;;;29.09;28.37
35916;BME280;22010;47.558;10.218;2023-06-14T06:44:12;92859.19;;;29.12;28.48
35916;BME280;22010;47.558;10.218;2023-06-14T06:47:23;92851.94;;;29.18;28.64
35916;BME280;22010;47.558;10.218;2023-06-14T06:50:28;92860.41;;;29.20;28.49
35916;BME280;22010;47.558;10.218;2023-06-14T06:53:33;92856.97;;;29.19;28.27
35916;BME280;22010;47.558;10.218;2023-06-14T06:56:47;92860.88;;;29.22;28.41
35916;BME280;22010;47.558;10.218;2023-06-14T06:59:52;92863.47;;;29.08;28.53
35916;BME280;22010;47.558;10.218;2023-06-14T07:02:57;92860.59;;;29.23;28.59
35916;BME280;22010;47.558;10.218;2023-06-14T07:06:03;92868.69;;;29.32;28.67
35916;BME280;22010;47.558;10.218;2023-06-14T07:09:09;92856.41;;;29.36;28.41
35916;BME280;22010;47.558;10.218;2023-06-14T07:12:19;92863.03;;;29.39;28.81
35916;BME280;22010;47.558;10.218;2023-06-14T07:15:24;92870.38;;;29.42;28.86
35916;BME280;22010;47.558;10.218;2023-06-14T07:18:30;92859.47;;;29.43;28.76
35916;BME280;22010;47.558;10.218;2023-06-14T07:21:35;92868.88;;;29.36;28.75
35916;BME280;22010;47.558;10.218;2023-06-14T07:24:40;92864.38;;;29.17;29.02
35916;BME280;22010;47.558;10.218;2023-06-14T07:27:48;92857.81;;;29.15;29.35
35916;BME280;22010;47.558;10.218;2023-06-14T07:30:53;92865.28;;;29.13;28.89
35916;BME280;22010;47.558;10.218;2023-06-14T07:33:58;92863.69;;;29.12;29.15
35916;BME280;22010;47.558;10.218;2023-06-14T07:37:04;92872.44;;;29.12;28.92
35916;BME280;22010;47.558;10.218;2023-06-14T07:40:10;92866.06;;;29.13;29.29
35916;BME280;22010;47.558;10.218;2023-06-14T07:43:18;92872.94;;;29.14;28.94
35916;BME280;22010;47.558;10.218;2023-06-14T07:46:24;92866.06;;;29.13;28.70
35916;BME280;70731;47.558;10.218;2023-06-14T07:49:29;92878.22;;;29.14;29.02
35916;BME280;70731;47.558;10.218;2023-06-14T07:52:34;92877.16;;;29.15;28.53
35916;BME280;70731;47.558;10.218;2023-06-14T07:55:39;92876.06;;;29.16;28.66
35916;BME280;70731;47.558;10.218;2023-06-14T07:58:57;92871.25;;;29.18;28.71
35916;BME280;70731;47.558;10.218;2023-06-14T08:02:02;92877.63;;;29.17;28.71
35916;BME280;70731;47.558;10.218;2023-06-14T08:05:09;92878.16;;;29.19;29.01
35916;BME280;70731;47.558;10.218;2023-06-14T08:08:15;92869.13;;;29.20;28.68
35916;BME280;70731;47.558;10.218;2023-06-14T08:11:20;92868.84;;;29.22;28.66
35916;BME280;70731;47.558;10.218;2023-06-14T08:14:28;92861.38;;;29.24;28.92
35916;BME280;70731;47.558;10.218;2023-06-14T08:17:33;92871.19;;;29.23;28.62
35916;BME280;70731;47.558;10.218;2023-06-14T08:20:39;92861.38;;;29.24;28.61
35916;BME280;70731;47.558;10.218;2023-06-14T08:23:44;92864.81;;;29.24;28.50
35916;BME280;70731;47.558;10.218;2023-06-14T08:26:49;92863.75;;;29.25;28.81
35916;BME280;70731;47.558;10.218;2023-06-14T08:29:57;92863.16;;;29.29;28.72
35916;BME280;70731;47.558;10.218;2023-06-14T08:33:02;92861.59;;;29.28;28.55
35916;BME280;70731;47.558;10.218;2023-06-14T08:36:18;92863.16;;;29.29;28.37
35916;BME280;70731;47.558;10.218;2023-06-14T08:39:24;92860.53;;;29.29;28.40
35916;BME280;70731;47.558;10.218;2023-06-14T08:42:30;92859.44;;;29.30;28.64
35916;BME280;70731;47.558;10.218;2023-06-14T08:45:38;92861.22;;;29.34;28.23
35916;BME280;70731;47.558;10.218;2023-06-14T08:48:43;92872.59;;;29.35;28.21
35916;BME280;70731;47.558;10.218;2023-06-14T08:51:50;92868.59;;;29.37;28.41
35916;BME280;70731;47.558;10.218;2023-06-14T08:54:59;92862.78;;;29.35;28.26
35916;BME280;70731;47.558;10.218;2023-06-14T08:58:06;92873.63;;;29.39;28.42
35916;BME280;70731;47.558;10.218;2023-06-14T09:01:14;92871.47;;;29.41;28.33
35916;BME280;70731;47.558;10.218;2023-06-14T09:04:20;92876.75;;;29.41;28.66
35916;BME280;70731;47.558;10.218;2023-06-14T09:07:26;92878.31;;;29.42;28.50
35916;BME280;70731;47.558;10.218;2023-06-14T09:10:32;92875.38;;;29.43;28.64
35916;BME280;70731;47.558;10.218;2023-06-14T09:13:41;92879.59;;;29.44;28.69
35916;BME280;70731;47.558;10.218;2023-06-14T09:16:52;92879.53;;;29.49;28.52
35916;BME280;70731;47.558;10.218;2023-06-14T09:19:58;92878.53;;;29.45;28.25
35916;BME280;70731;47.558;10.218;2023-06-14T09:23:04;92875.91;;;29.45;28.38
35916;BME280;70731;47.558;10.218;2023-06-14T09:26:11;92877.16;;;29.48;28.55
35916;BME280;70731;47.558;10.218;2023-06-14T09:29:16;92883.25;;;29.48;28.26
35916;BME280;70731;47.558;10.218;2023-06-14T09:32:25;92872.91;;;29.52;28.62
35916;BME280;70731;47.558;10.218;2023-06-14T09:35:31;92878.44;;;29.50;28.37
35916;BME280;70731;47.558;10.218;2023-06-14T09:38:36;92879.78;;;29.53;28.67
35916;BME280;70731;47.558;10.218;2023-06-14T09:41:41;92883.19;;;29.54;28.54
35916;BME280;70731;47.558;10.218;2023-06-14T09:44:48;92877.03;;;29.58;28.64
35916;BME280;70731;47.558;10.218;2023-06-14T09:47:56;92875.97;;;29.59;28.81
35916;BME280;70731;47.558;10.218;2023-06-14T09:51:09;92875.97;;;29.59;28.49
35916;BME280;70731;47.558;10.218;2023-06-14T09:54:16;92875.66;;;29.61;28.32
35916;BME280;70731;47.558;10.218;2023-06-14T09:57:22;92882.53;;;29.62;28.37
35916;BME280;70731;47.558;10.218;2023-06-14T10:00:28;92874.28;;;29.63;28.62
35916;BME280;70731;47.558;10.218;2023-06-14T10:03:38;92882.44;;;29.67;28.44
35916;BME280;70731;47.558;10.218;2023-06-14T10:06:51;92877.44;;;29.65;28.65
35916;BME280;70731;47.558;10.218;2023-06-14T10:09:58;92878.81;;;29.63;28.65
35916;BME280;70731;47.558;10.218;2023-06-14T10:13:04;92872.22;;;29.60;28.56
35916;BME280;70731;47.558;10.218;2023-06-14T10:16:15;92882.22;;;29.63;29.13
35916;BME280;70731;47.558;10.218;2023-06-14T10:19:27;92878.22;;;29.66;28.67
35916;BME280;70731;47.558;10.218;2023-06-14T10:22:43;92883.25;;;29.67;28.60
35916;BME280;70731;47.558;10.218;2023-06-14T10:25:50;92885.09;;;29.67;28.97
35916;BME280;70731;47.558;10.218;2023-06-14T10:28:57;92884.31;;;29.66;28.70
35916;BME280;70731;47.558;10.218;2023-06-14T10:32:04;92873.72;;;29.66;28.75
35916;BME280;70731;47.558;10.218;2023-06-14T10:35:16;92885.28;;;29.70;28.88
35916;BME280;70731;47.558;10.218;2023-06-14T10:38:30;92876.28;;;29.71;29.29
35916;BME280;70731;47.558;10.218;2023-06-14T10:41:37;92866.25;;;29.68;29.22
35916;BME280;70731;47.558;10.218;2023-06-14T10:44:45;92873.19;;;29.64;29.59
35916;BME280;70731;47.558;10.218;2023-06-14T10:47:51;92882.44;;;29.67;29.22
35916;BME280;70731;47.558;10.218;2023-06-14T10:51:02;92875.47;;;29.71;29.23
35916;BME280;70731;47.558;10.218;2023-06-14T10:54:11;92871.00;;;29.71;29.05
35916;BME280;70731;47.558;10.218;2023-06-14T10:57:16;92869.38;;;29.70;29.05
35916;BME280;70731;47.558;10.218;2023-06-14T11:00:22;92873.41;;;29.68;29.75
